createdAt,value
2022-11-16T00:00:35.316Z,82.86
2022-11-16T00:03:03.021Z,82.58
2022-11-16T00:05:29.549Z,82.25
2022-11-16T00:07:56.326Z,82.68
2022-11-16T00:10:22.725Z,82.90
2022-11-16T00:12:49.113Z,82.98
2022-11-16T00:15:15.579Z,82.97
2022-11-16T00:17:41.998Z,83.15
2022-11-16T00:20:08.742Z,83.12
2022-11-16T00:22:35.229Z,83.15
2022-11-16T00:25:01.571Z,83.11
2022-11-16T00:27:28.073Z,83.25
2022-11-16T00:29:54.527Z,82.96
2022-11-16T00:32:21.083Z,83.09
2022-11-16T00:34:47.514Z,83.06
2022-11-16T00:37:13.945Z,83.28
2022-11-16T00:39:40.373Z,82.78
2022-11-16T00:42:06.826Z,83.29
2022-11-16T00:44:33.267Z,83.24
2022-11-16T00:46:59.644Z,83.36
2022-11-16T00:49:26.088Z,83.71
2022-11-16T00:51:52.498Z,83.27
2022-11-16T00:54:19.619Z,83.34
2022-11-16T00:56:46.095Z,83.27
2022-11-16T00:59:12.566Z,83.27
2022-11-16T01:01:41.272Z,83.22
2022-11-16T01:04:07.788Z,83.25
2022-11-16T01:06:35.704Z,83.47
2022-11-16T01:09:02.506Z,83.32
2022-11-16T01:11:47.716Z,83.42
2022-11-16T01:14:14.229Z,84.12
2022-11-16T01:16:43.147Z,84.14
2022-11-16T01:19:09.629Z,83.98
2022-11-16T01:21:36.695Z,84.06
2022-11-16T01:24:03.170Z,83.98
2022-11-16T01:26:29.698Z,84.11
2022-11-16T01:28:57.668Z,83.87
2022-11-16T01:31:24.474Z,83.94
2022-11-16T01:33:51.806Z,84.06
2022-11-16T01:36:27.051Z,84.36
2022-11-16T01:38:55.489Z,84.21
2022-11-16T01:41:26.161Z,84.48
2022-11-16T01:43:55.647Z,84.04
2022-11-16T01:46:25.088Z,83.61
2022-11-16T01:48:54.775Z,83.90
2022-11-16T01:51:22.520Z,84.16
2022-11-16T01:53:49.616Z,83.97
2022-11-16T01:56:17.009Z,83.86
2022-11-16T01:58:52.374Z,83.69
2022-11-16T02:01:23.588Z,83.95
2022-11-16T02:03:54.403Z,84.05
2022-11-16T02:06:21.371Z,83.86
2022-11-16T02:09:25.517Z,83.94
2022-11-16T02:12:29.881Z,84.54
2022-11-16T02:14:56.373Z,84.00
2022-11-16T02:17:23.827Z,83.43
2022-11-16T02:20:09.447Z,84.09
2022-11-16T02:22:55.552Z,83.91
2022-11-16T02:25:32.359Z,83.72
2022-11-16T02:28:13.099Z,84.04
2022-11-16T02:30:43.288Z,83.99
2022-11-16T02:33:12.643Z,83.08
2022-11-16T02:35:52.133Z,83.65
2022-11-16T02:38:23.034Z,83.64
2022-11-16T02:40:53.268Z,83.70
2022-11-16T02:43:28.155Z,84.27
2022-11-16T02:45:57.099Z,83.50
2022-11-16T02:48:26.010Z,84.06
2022-11-16T02:50:53.723Z,83.45
2022-11-16T02:53:21.219Z,83.26
2022-11-16T02:55:47.883Z,83.75
2022-11-16T02:58:17.912Z,83.92
2022-11-16T03:00:48.026Z,83.89
2022-11-16T03:03:20.803Z,82.56
2022-11-16T03:05:50.284Z,82.82
2022-11-16T03:08:23.177Z,83.43
2022-11-16T03:11:12.262Z,83.16
2022-11-16T03:13:40.554Z,83.23
2022-11-16T03:16:16.057Z,83.49
2022-11-16T03:18:44.396Z,83.66
2022-11-16T03:21:15.173Z,83.25
2022-11-16T03:23:43.490Z,83.41
2022-11-16T03:26:10.396Z,83.49
2022-11-16T03:28:42.398Z,83.89
2022-11-16T03:31:14.991Z,82.86
2022-11-16T03:33:48.328Z,82.78
2022-11-16T03:36:18.116Z,83.49
2022-11-16T03:38:46.353Z,83.49
2022-11-16T03:41:14.726Z,83.76
2022-11-16T03:43:43.446Z,83.30
2022-11-16T03:46:10.065Z,82.93
2022-11-16T03:48:37.807Z,82.75
2022-11-16T03:51:10.330Z,82.74
2022-11-16T03:53:38.416Z,83.13
2022-11-16T03:56:05.082Z,82.76
2022-11-16T03:58:31.947Z,83.23
2022-11-16T04:00:59.119Z,82.94
2022-11-16T04:03:27.615Z,82.57
2022-11-16T04:06:13.127Z,82.95
2022-11-16T04:08:58.316Z,83.45
2022-11-16T04:11:43.600Z,82.57
2022-11-16T04:14:33.462Z,83.80
2022-11-16T04:17:18.717Z,83.25
2022-11-16T04:20:03.784Z,82.32
2022-11-16T04:22:58.077Z,83.78
2022-11-16T04:25:28.246Z,83.12
2022-11-16T04:28:13.452Z,82.46
2022-11-16T04:31:03.943Z,83.66
2022-11-16T04:33:49.751Z,83.15
2022-11-16T04:36:36.051Z,83.08
2022-11-16T04:39:03.340Z,83.16
2022-11-16T04:41:49.146Z,83.02
2022-11-16T04:44:16.049Z,83.89
2022-11-16T04:47:01.360Z,84.04
2022-11-16T04:49:27.788Z,83.80
2022-11-16T04:51:56.101Z,82.68
2022-11-16T04:54:23.032Z,83.66
2022-11-16T04:56:49.857Z,83.68
2022-11-16T04:59:18.712Z,84.69
2022-11-16T05:02:03.854Z,84.08
2022-11-16T05:04:30.779Z,84.86
2022-11-16T05:06:58.034Z,84.82
2022-11-16T05:09:24.726Z,84.62
2022-11-16T05:11:51.450Z,85.07
2022-11-16T05:14:17.968Z,84.58
2022-11-16T05:16:44.433Z,84.00
2022-11-16T05:19:29.432Z,83.93
2022-11-16T05:21:58.509Z,83.72
2022-11-16T05:24:34.112Z,83.42
2022-11-16T05:27:03.678Z,83.45
2022-11-16T05:29:31.058Z,84.11
2022-11-16T05:31:58.040Z,82.97
2022-11-16T05:34:25.860Z,84.07
2022-11-16T05:36:52.415Z,82.77
2022-11-16T05:39:19.533Z,83.68
2022-11-16T05:41:47.377Z,83.92
2022-11-16T05:44:14.312Z,83.07
2022-11-16T05:46:41.265Z,83.55
2022-11-16T05:49:08.787Z,83.01
2022-11-16T05:51:36.793Z,83.41
2022-11-16T05:54:03.761Z,83.73
2022-11-16T05:56:31.524Z,83.38
2022-11-16T05:58:58.263Z,83.80
2022-11-16T06:01:25.385Z,83.51
2022-11-16T06:03:52.040Z,82.90
2022-11-16T06:06:18.629Z,82.55
2022-11-16T06:08:45.412Z,82.71
2022-11-16T06:11:16.673Z,83.16
2022-11-16T06:13:44.393Z,83.06
2022-11-16T06:16:11.627Z,83.94
2022-11-16T06:18:40.271Z,82.80
2022-11-16T06:21:07.813Z,83.55
2022-11-16T06:23:34.818Z,82.83
2022-11-16T06:26:02.565Z,83.11
2022-11-16T06:28:30.005Z,82.59
2022-11-16T06:30:56.780Z,82.58
2022-11-16T06:33:28.537Z,82.88
2022-11-16T06:35:57.917Z,82.99
2022-11-16T06:38:24.634Z,82.48
2022-11-16T06:40:55.308Z,83.18
2022-11-16T06:43:26.163Z,82.68
2022-11-16T06:45:57.870Z,83.06
2022-11-16T06:48:24.618Z,83.20
2022-11-16T06:50:52.085Z,82.22
2022-11-16T06:53:27.601Z,81.70
2022-11-16T06:56:00.735Z,81.81
2022-11-16T06:58:28.911Z,82.55
2022-11-16T07:00:55.404Z,82.74
2022-11-16T07:03:22.800Z,82.53
2022-11-16T07:05:49.241Z,82.85
2022-11-16T07:08:17.212Z,82.05
2022-11-16T07:10:43.655Z,81.79
2022-11-16T07:13:10.099Z,81.75
2022-11-16T07:15:38.449Z,82.30
2022-11-16T07:18:06.449Z,82.48
2022-11-16T07:20:35.110Z,82.48
2022-11-16T07:23:02.938Z,81.30
2022-11-16T07:25:29.485Z,81.54
2022-11-16T07:27:57.788Z,81.81
2022-11-16T07:30:24.686Z,81.45
2022-11-16T07:33:04.161Z,82.64
2022-11-16T07:35:49.028Z,81.94
2022-11-16T07:38:18.203Z,82.52
2022-11-16T07:40:45.705Z,81.70
2022-11-16T07:43:20.172Z,81.48
2022-11-16T07:46:44.732Z,81.90
2022-11-16T07:48:53.657Z,82.18
2022-11-16T07:51:38.625Z,82.28
2022-11-16T07:54:24.218Z,81.82
2022-11-16T07:56:51.232Z,81.20
2022-11-16T07:59:18.435Z,82.07
2022-11-16T08:01:48.542Z,81.67
2022-11-16T08:04:17.384Z,81.60
2022-11-16T08:06:44.309Z,81.08
2022-11-16T08:09:10.856Z,81.31
2022-11-16T08:11:38.041Z,81.92
2022-11-16T08:14:04.769Z,81.02
2022-11-16T08:16:33.305Z,81.30
2022-11-16T08:19:07.861Z,81.27
2022-11-16T08:21:34.352Z,80.82
2022-11-16T08:24:02.542Z,81.75
2022-11-16T08:26:30.640Z,81.18
2022-11-16T08:29:03.380Z,81.52
2022-11-16T08:31:34.019Z,81.43
2022-11-16T08:34:07.747Z,80.79
2022-11-16T08:36:36.094Z,81.24
2022-11-16T08:39:03.274Z,81.84
2022-11-16T08:41:31.684Z,81.11
2022-11-16T08:44:00.414Z,81.23
2022-11-16T08:46:27.053Z,81.23
2022-11-16T08:49:02.787Z,81.40
2022-11-16T08:51:29.278Z,81.35
2022-11-16T08:54:03.888Z,81.20
2022-11-16T08:56:31.233Z,80.92
2022-11-16T08:58:59.094Z,81.35
2022-11-16T09:01:27.937Z,81.40
2022-11-16T09:03:54.887Z,81.30
2022-11-16T09:06:21.784Z,81.17
2022-11-16T09:08:48.235Z,81.40
2022-11-16T09:11:16.162Z,80.83
2022-11-16T09:13:43.138Z,81.55
2022-11-16T09:16:10.192Z,81.62
2022-11-16T09:18:37.396Z,81.42
2022-11-16T09:21:04.191Z,81.34
2022-11-16T09:23:30.593Z,81.47
2022-11-16T09:26:00.176Z,81.70
2022-11-16T09:28:27.687Z,81.13
2022-11-16T09:30:54.076Z,81.45
2022-11-16T09:33:20.464Z,81.55
2022-11-16T09:35:47.061Z,81.02
2022-11-16T09:38:19.116Z,81.72
2022-11-16T09:40:50.720Z,81.03
2022-11-16T09:43:32.901Z,81.09
2022-11-16T09:46:14.788Z,81.32
2022-11-16T09:48:41.425Z,81.11
2022-11-16T09:51:09.710Z,81.05
2022-11-16T09:53:36.583Z,81.16
2022-11-16T09:56:05.656Z,80.89
2022-11-16T09:58:35.283Z,80.92
2022-11-16T10:01:05.863Z,80.50
2022-11-16T10:03:38.132Z,80.66
2022-11-16T10:06:12.867Z,80.40
2022-11-16T10:08:45.502Z,80.16
2022-11-16T10:11:30.661Z,80.21
2022-11-16T10:14:25.747Z,80.69
2022-11-16T10:17:11.047Z,80.32
2022-11-16T10:19:43.500Z,80.20
2022-11-16T10:22:28.779Z,79.97
2022-11-16T10:24:59.098Z,80.27
2022-11-16T10:27:37.904Z,79.62
2022-11-16T10:30:08.894Z,79.85
2022-11-16T10:32:39.431Z,79.82
2022-11-16T10:35:11.961Z,80.06
2022-11-16T10:37:41.158Z,79.84
2022-11-16T10:40:21.643Z,79.54
2022-11-16T10:43:05.904Z,79.68
2022-11-16T10:45:39.171Z,79.69
2022-11-16T10:48:23.743Z,79.92
2022-11-16T10:50:51.682Z,79.41
2022-11-16T10:53:28.786Z,79.35
2022-11-16T10:56:14.044Z,78.96
2022-11-16T10:58:55.775Z,79.61
2022-11-16T11:01:33.176Z,79.88
2022-11-16T11:04:11.705Z,79.59
2022-11-16T11:06:38.463Z,79.92
2022-11-16T11:09:14.752Z,79.13
2022-11-16T11:11:59.890Z,79.44
2022-11-16T11:14:26.346Z,79.27
2022-11-16T11:16:53.136Z,79.17
2022-11-16T11:19:27.431Z,79.49
2022-11-16T11:21:58.624Z,79.45
2022-11-16T11:27:12.269Z,78.91
2022-11-16T11:29:41.270Z,78.96
2022-11-16T11:32:14.623Z,79.11
2022-11-16T11:34:44.802Z,79.57
2022-11-16T11:37:15.152Z,79.49
2022-11-16T11:39:41.599Z,79.70
2022-11-16T11:42:14.324Z,79.85
2022-11-16T11:44:50.167Z,79.78
2022-11-16T11:47:55.699Z,80.36
2022-11-16T11:50:10.969Z,80.45
2022-11-16T11:52:40.509Z,80.63
2022-11-16T11:55:07.799Z,80.65
2022-11-16T11:57:38.584Z,79.96
2022-11-16T12:00:05.864Z,80.29
2022-11-16T12:02:52.960Z,79.73
2022-11-16T12:05:35.358Z,79.96
2022-11-16T12:08:07.926Z,79.45
2022-11-16T12:10:37.371Z,79.97
2022-11-16T12:13:03.873Z,80.04
2022-11-16T12:15:46.989Z,79.09
2022-11-16T12:18:13.350Z,79.32
2022-11-16T12:20:58.779Z,79.14
2022-11-16T12:23:44.084Z,78.89
2022-11-16T12:26:10.461Z,78.55
2022-11-16T12:28:39.857Z,78.68
2022-11-16T12:31:10.167Z,78.93
2022-11-16T12:33:44.356Z,78.30
2022-11-16T12:36:13.863Z,78.72
2022-11-16T12:38:45.213Z,78.21
2022-11-16T12:41:23.974Z,78.48
2022-11-16T12:43:50.395Z,78.14
2022-11-16T12:46:21.641Z,77.76
2022-11-16T12:48:48.317Z,78.18
2022-11-16T12:51:14.682Z,77.67
2022-11-16T12:53:56.864Z,77.04
2022-11-16T12:56:37.714Z,77.37
2022-11-16T12:59:16.374Z,77.68
2022-11-16T13:02:00.629Z,77.86
2022-11-16T13:04:32.094Z,77.55
2022-11-16T13:07:11.427Z,77.01
2022-11-16T13:09:40.659Z,77.56
2022-11-16T13:12:14.118Z,77.33
2022-11-16T13:14:43.425Z,77.15
2022-11-16T13:17:15.289Z,77.13
2022-11-16T13:19:44.170Z,76.76
2022-11-16T13:22:14.602Z,76.75
2022-11-16T13:24:44.359Z,76.79
2022-11-16T13:27:26.207Z,76.58
2022-11-16T13:29:52.605Z,76.36
2022-11-16T13:32:31.206Z,76.30
2022-11-16T13:34:58.794Z,75.78
2022-11-16T13:37:37.889Z,76.12
2022-11-16T13:40:04.594Z,76.13
2022-11-16T13:42:33.749Z,76.28
2022-11-16T13:45:09.532Z,76.14
2022-11-16T13:47:37.181Z,76.33
2022-11-16T13:50:05.734Z,76.25
2022-11-16T13:53:36.446Z,76.14
2022-11-16T13:55:34.139Z,75.67
2022-11-16T13:58:03.248Z,76.32
2022-11-16T14:00:31.370Z,76.06
2022-11-16T14:03:16.055Z,75.96
2022-11-16T14:05:47.103Z,76.13
2022-11-16T14:08:19.551Z,76.67
2022-11-16T14:10:52.092Z,77.08
2022-11-16T14:13:36.986Z,77.43
2022-11-16T14:16:21.677Z,77.81
2022-11-16T14:18:48.050Z,78.16
2022-11-16T14:21:17.432Z,78.04
2022-11-16T14:23:46.180Z,78.01
2022-11-16T14:26:39.056Z,77.90
2022-11-16T14:29:11.324Z,78.28
2022-11-16T14:31:46.770Z,78.84
2022-11-16T14:34:18.237Z,78.78
2022-11-16T14:36:45.996Z,78.64
2022-11-16T14:39:24.650Z,78.79
2022-11-16T14:41:51.266Z,78.85
2022-11-16T14:44:19.445Z,78.93
2022-11-16T14:46:46.337Z,78.91
2022-11-16T14:49:15.944Z,78.92
2022-11-16T14:51:47.468Z,78.73
2022-11-16T14:54:20.386Z,78.71
2022-11-16T14:56:57.740Z,79.14
2022-11-16T14:59:24.270Z,79.41
2022-11-16T15:01:50.743Z,79.29
2022-11-16T15:04:17.880Z,79.24
2022-11-16T15:06:48.826Z,79.65
2022-11-16T15:09:24.377Z,79.82
2022-11-16T15:12:09.605Z,79.61
2022-11-16T15:14:50.847Z,79.66
2022-11-16T15:17:19.395Z,80.40
2022-11-16T15:19:59.258Z,80.73
2022-11-16T15:22:30.387Z,80.85
2022-11-16T15:24:58.191Z,80.41
2022-11-16T15:27:27.912Z,80.65
2022-11-16T15:29:54.330Z,81.35
2022-11-16T15:32:20.880Z,80.63
2022-11-16T15:34:49.002Z,81.16
2022-11-16T15:37:25.946Z,81.21
2022-11-16T15:39:56.396Z,81.03
2022-11-16T15:42:23.799Z,81.86
2022-11-16T15:44:50.910Z,81.12
2022-11-16T15:47:18.113Z,81.41
2022-11-16T15:49:49.488Z,81.78
2022-11-16T15:52:35.006Z,81.58
2022-11-16T15:55:04.311Z,81.53
2022-11-16T15:57:30.977Z,81.50
2022-11-16T15:59:58.015Z,81.24
2022-11-16T16:02:29.789Z,81.41
2022-11-16T16:04:56.629Z,81.63
2022-11-16T16:07:36.581Z,81.81
2022-11-16T16:10:18.400Z,81.51
2022-11-16T16:12:52.098Z,81.63
2022-11-16T16:15:21.939Z,81.77
2022-11-16T16:17:48.803Z,81.65
2022-11-16T16:20:18.214Z,81.75
2022-11-16T16:22:44.669Z,82.13
2022-11-16T16:25:30.099Z,82.88
2022-11-16T16:27:56.530Z,83.22
2022-11-16T16:30:23.179Z,82.50
2022-11-16T16:32:50.311Z,83.37
2022-11-16T16:35:18.314Z,83.52
2022-11-16T16:37:47.933Z,83.92
2022-11-16T16:40:14.389Z,84.15
2022-11-16T16:42:42.890Z,83.64
2022-11-16T16:45:14.869Z,84.14
2022-11-16T16:47:41.425Z,83.96
2022-11-16T16:50:08.005Z,83.74
2022-11-16T16:52:34.366Z,84.45
2022-11-16T16:55:00.774Z,83.95
2022-11-16T16:57:28.904Z,83.99
2022-11-16T16:59:55.347Z,83.89
2022-11-16T17:02:21.961Z,84.50
2022-11-16T17:04:48.891Z,84.48
2022-11-16T17:07:15.868Z,84.27
2022-11-16T17:09:42.795Z,84.61
2022-11-16T17:12:10.761Z,84.18
2022-11-16T17:14:37.329Z,84.18
2022-11-16T17:17:03.759Z,84.45
2022-11-16T17:19:30.155Z,84.84
2022-11-16T17:21:56.629Z,84.43
2022-11-16T17:24:23.108Z,84.60
2022-11-16T17:26:53.434Z,83.47
2022-11-16T17:29:19.825Z,83.77
2022-11-16T17:31:47.114Z,84.11
2022-11-16T17:34:14.117Z,84.18
2022-11-16T17:36:42.661Z,84.87
2022-11-16T17:39:09.251Z,84.27
2022-11-16T17:41:35.988Z,84.27
2022-11-16T17:44:02.334Z,84.37
2022-11-16T17:46:29.162Z,84.69
2022-11-16T17:48:55.693Z,83.63
2022-11-16T17:51:23.547Z,84.35
2022-11-16T17:53:50.596Z,83.98
2022-11-16T17:56:19.031Z,83.89
2022-11-16T17:58:46.206Z,84.54
2022-11-16T18:01:13.597Z,84.25
2022-11-16T18:03:42.510Z,84.03
2022-11-16T18:06:13.922Z,83.69
2022-11-16T18:08:40.842Z,84.38
2022-11-16T18:11:08.305Z,84.28
2022-11-16T18:13:35.555Z,83.65
2022-11-16T18:16:21.489Z,84.02
2022-11-16T18:18:48.490Z,84.26
2022-11-16T18:21:20.388Z,83.46
2022-11-16T18:23:47.371Z,83.98
2022-11-16T18:26:14.972Z,83.77
2022-11-16T18:28:41.472Z,83.77
2022-11-16T18:31:09.792Z,83.97
2022-11-16T18:33:36.961Z,84.20
2022-11-16T18:36:04.480Z,84.46
2022-11-16T18:38:31.385Z,84.50
2022-11-16T18:41:06.993Z,84.20
2022-11-16T18:43:36.704Z,84.54
2022-11-16T18:46:03.637Z,84.08
2022-11-16T18:48:30.066Z,83.88
2022-11-16T18:50:58.681Z,83.76
2022-11-16T18:53:25.457Z,84.44
2022-11-16T18:55:57.594Z,83.92
2022-11-16T18:58:49.244Z,84.16
2022-11-16T19:01:12.692Z,84.20
2022-11-16T19:03:39.120Z,83.97
2022-11-16T19:06:10.187Z,83.47
2022-11-16T19:08:37.599Z,83.90
2022-11-16T19:11:08.544Z,83.65
2022-11-16T19:13:35.474Z,84.12
2022-11-16T19:16:03.748Z,84.11
2022-11-16T19:18:30.237Z,84.14
2022-11-16T19:21:18.452Z,83.66
2022-11-16T19:23:46.120Z,83.64
2022-11-16T19:26:14.491Z,84.48
2022-11-16T19:28:42.259Z,84.08
2022-11-16T19:31:09.911Z,84.01
2022-11-16T19:33:36.857Z,84.03
2022-11-16T19:36:10.550Z,84.10
2022-11-16T19:38:37.455Z,84.34
2022-11-16T19:41:04.472Z,84.35
2022-11-16T19:43:31.314Z,84.02
2022-11-16T19:46:05.188Z,84.21
2022-11-16T19:48:32.556Z,83.85
2022-11-16T19:51:06.396Z,84.53
2022-11-16T19:53:33.235Z,83.99
2022-11-16T19:56:00.306Z,84.73
2022-11-16T19:58:26.976Z,84.06
2022-11-16T20:01:00.080Z,84.75
2022-11-16T20:03:26.693Z,83.90
2022-11-16T20:05:55.980Z,84.68
2022-11-16T20:08:22.426Z,84.63
2022-11-16T20:10:48.848Z,83.94
2022-11-16T20:13:15.596Z,84.21
2022-11-16T20:15:42.080Z,83.92
2022-11-16T20:18:09.041Z,84.29
2022-11-16T20:20:37.117Z,84.39
2022-11-16T20:23:03.669Z,84.46
2022-11-16T20:25:30.112Z,84.77
2022-11-16T20:27:56.493Z,84.91
2022-11-16T20:30:22.880Z,85.21
2022-11-16T20:32:49.540Z,84.76
2022-11-16T20:35:19.064Z,84.77
2022-11-16T20:37:45.729Z,85.21
2022-11-16T20:40:12.337Z,85.17
2022-11-16T20:42:38.758Z,85.29
2022-11-16T20:45:06.734Z,84.66
2022-11-16T20:47:33.162Z,85.37
2022-11-16T20:49:59.540Z,85.21
2022-11-16T20:52:25.945Z,84.21
2022-11-16T20:54:52.334Z,84.50
2022-11-16T20:57:19.023Z,84.82
2022-11-16T20:59:45.490Z,84.75
2022-11-16T21:02:11.957Z,84.92
2022-11-16T21:04:38.342Z,84.09
2022-11-16T21:07:04.804Z,84.77
2022-11-16T21:09:51.339Z,84.26
2022-11-16T21:12:42.635Z,83.81
2022-11-16T21:15:09.814Z,84.14
2022-11-16T21:17:36.436Z,84.25
2022-11-16T21:20:26.333Z,84.43
2022-11-16T21:22:50.724Z,84.47
2022-11-16T21:25:17.456Z,84.20
2022-11-16T21:27:43.893Z,83.98
2022-11-16T21:30:10.921Z,84.24
2022-11-16T21:32:37.364Z,84.13
2022-11-16T21:35:03.867Z,84.37
2022-11-16T21:37:30.274Z,84.18
2022-11-16T21:39:56.714Z,84.33
2022-11-16T21:42:23.138Z,83.99
2022-11-16T21:44:49.627Z,84.03
2022-11-16T21:47:16.017Z,84.43
2022-11-16T21:50:08.342Z,84.55
2022-11-16T21:52:29.083Z,84.01
2022-11-16T21:55:01.145Z,83.79
2022-11-16T21:57:28.964Z,84.10
2022-11-16T21:59:55.557Z,83.43
2022-11-16T22:02:21.941Z,83.83
2022-11-16T22:05:07.071Z,82.90
2022-11-16T22:07:37.896Z,82.93
2022-11-16T22:10:06.335Z,82.73
2022-11-16T22:12:33.061Z,83.12
2022-11-16T22:14:59.598Z,83.38
2022-11-16T22:17:26.203Z,82.62
2022-11-16T22:19:53.887Z,82.67
2022-11-16T22:22:20.311Z,83.09
2022-11-16T22:24:47.448Z,83.30
2022-11-16T22:27:17.640Z,82.50
2022-11-16T22:29:44.427Z,82.67
2022-11-16T22:32:10.898Z,82.74
2022-11-16T22:34:37.421Z,83.07
2022-11-16T22:37:03.809Z,83.08
2022-11-16T22:39:30.220Z,83.15
2022-11-16T22:41:56.652Z,82.74
2022-11-16T22:44:23.028Z,82.28
2022-11-16T22:46:49.529Z,82.24
2022-11-16T22:49:15.903Z,82.11
2022-11-16T22:51:42.407Z,81.87
2022-11-16T22:54:11.328Z,82.07
2022-11-16T22:56:38.164Z,82.38
2022-11-16T22:59:05.626Z,82.30
2022-11-16T23:01:32.202Z,82.25
2022-11-16T23:03:58.700Z,82.52
2022-11-16T23:06:25.559Z,82.06
2022-11-16T23:08:52.039Z,82.50
2022-11-16T23:11:39.060Z,82.87
2022-11-16T23:14:24.780Z,82.27
2022-11-16T23:16:51.525Z,82.39
2022-11-16T23:19:37.375Z,82.29
2022-11-16T23:22:23.094Z,82.84
2022-11-16T23:25:07.897Z,82.02
2022-11-16T23:27:43.518Z,82.31
2022-11-16T23:30:12.705Z,82.18
2022-11-16T23:32:40.417Z,82.09
2022-11-16T23:35:07.309Z,82.12
2022-11-16T23:37:33.803Z,82.20
2022-11-16T23:40:00.323Z,82.45
2022-11-16T23:42:45.512Z,82.31
2022-11-16T23:45:11.912Z,82.03
2022-11-16T23:47:38.298Z,81.97
2022-11-16T23:50:04.866Z,82.33
2022-11-16T23:52:31.305Z,81.97
2022-11-16T23:54:57.738Z,82.52
2022-11-16T23:57:24.131Z,81.93
2022-11-16T23:59:50.601Z,81.99
